createdAt,value
2022-08-18T00:01:34.425Z,11.50
2022-08-18T00:04:03.426Z,13.02
2022-08-18T00:06:31.319Z,12.93
2022-08-18T00:09:00.732Z,11.88
2022-08-18T00:11:41.245Z,12.23
2022-08-18T00:14:21.425Z,13.88
2022-08-18T00:16:51.132Z,12.82
2022-08-18T00:19:18.007Z,11.07
2022-08-18T00:21:44.942Z,10.10
2022-08-18T00:24:11.887Z,10.52
2022-08-18T00:26:38.907Z,10.93
2022-08-18T00:29:05.716Z,12.38
2022-08-18T00:31:33.439Z,10.32
2022-08-18T00:34:00.461Z,13.60
2022-08-18T00:36:27.816Z,11.07
2022-08-18T00:38:54.949Z,10.80
2022-08-18T00:41:26.369Z,10.48
2022-08-18T00:43:54.667Z,12.80
2022-08-18T00:46:27.034Z,11.20
2022-08-18T00:48:54.434Z,10.88
2022-08-18T00:51:37.107Z,11.88
2022-08-18T00:54:08.932Z,12.20
2022-08-18T00:56:44.929Z,11.15
2022-08-18T00:59:19.566Z,12.70
2022-08-18T01:01:48.281Z,10.38
2022-08-18T01:04:28.186Z,12.45
2022-08-18T01:06:58.644Z,12.07
2022-08-18T01:09:44.286Z,11.68
2022-08-18T01:12:12.546Z,11.38
2022-08-18T01:14:58.530Z,12.32
2022-08-18T01:17:46.168Z,13.60
2022-08-18T01:20:36.160Z,13.48
2022-08-18T01:23:11.403Z,13.05
2022-08-18T01:26:02.389Z,12.27
2022-08-18T01:28:39.645Z,12.75
2022-08-18T01:33:39.880Z,12.68
2022-08-18T01:36:16.808Z,13.18
2022-08-18T01:38:45.547Z,13.18
2022-08-18T01:41:28.606Z,12.90
2022-08-18T01:43:57.164Z,10.32
2022-08-18T01:46:24.456Z,12.98
2022-08-18T01:48:51.585Z,14.02
2022-08-18T01:51:20.555Z,16.90
2022-08-18T01:54:05.616Z,13.13
2022-08-18T01:56:32.547Z,16.67
2022-08-18T01:58:59.246Z,13.52
2022-08-18T02:01:36.470Z,15.65
2022-08-18T02:04:31.582Z,15.20
2022-08-18T02:06:54.583Z,15.30
2022-08-18T02:09:23.855Z,13.23
2022-08-18T02:11:53.598Z,13.98
2022-08-18T02:14:26.928Z,10.85
2022-08-18T02:17:01.683Z,15.20
2022-08-18T02:19:34.888Z,15.38
2022-08-18T02:22:02.154Z,14.57
2022-08-18T02:24:29.107Z,14.57
2022-08-18T02:26:56.062Z,15.20
2022-08-18T02:29:22.959Z,14.68
2022-08-18T02:31:49.854Z,15.35
2022-08-18T02:34:17.798Z,17.33
2022-08-18T02:36:45.661Z,14.35
2022-08-18T02:39:12.802Z,15.85
2022-08-18T02:41:39.595Z,16.73
2022-08-18T02:44:08.343Z,10.77
2022-08-18T02:46:36.022Z,14.38
2022-08-18T02:49:05.320Z,15.18
2022-08-18T02:51:32.187Z,14.40
2022-08-18T02:53:59.412Z,15.75
2022-08-18T02:56:41.484Z,11.93
2022-08-18T02:59:11.743Z,14.48
2022-08-18T03:01:42.971Z,13.80
2022-08-18T03:04:12.746Z,12.68
2022-08-18T03:06:39.809Z,12.95
2022-08-18T03:09:11.115Z,12.38
2022-08-18T03:11:38.245Z,14.20
2022-08-18T03:14:11.155Z,14.63
2022-08-18T03:16:47.609Z,15.60
2022-08-18T03:19:29.105Z,14.80
2022-08-18T03:21:59.329Z,14.25
2022-08-18T03:24:29.896Z,12.75
2022-08-18T03:26:57.394Z,11.63
2022-08-18T03:29:29.553Z,14.48
2022-08-18T03:31:58.702Z,15.25
2022-08-18T03:34:25.573Z,16.27
2022-08-18T03:36:52.464Z,14.23
2022-08-18T03:39:20.547Z,13.70
2022-08-18T03:41:58.213Z,17.20
2022-08-18T03:44:28.115Z,15.75
2022-08-18T03:46:54.824Z,16.98
2022-08-18T03:49:21.753Z,16.35
2022-08-18T03:51:49.218Z,16.98
2022-08-18T03:54:17.822Z,16.52
2022-08-18T03:56:46.471Z,21.00
2022-08-18T03:59:22.172Z,19.17
2022-08-18T04:01:51.246Z,20.70
2022-08-18T04:04:21.836Z,20.17
2022-08-18T04:06:58.381Z,17.95
2022-08-18T04:09:28.002Z,20.38
2022-08-18T04:11:56.204Z,21.60
2022-08-18T04:14:25.026Z,21.45
2022-08-18T04:16:52.626Z,18.33
2022-08-18T04:19:27.477Z,20.80
2022-08-18T04:21:56.960Z,19.25
2022-08-18T04:24:26.481Z,20.20
2022-08-18T04:26:53.411Z,23.77
2022-08-18T04:29:21.512Z,20.95
2022-08-18T04:31:50.257Z,20.40
2022-08-18T04:34:20.595Z,18.67
2022-08-18T04:36:47.993Z,20.02
2022-08-18T04:39:15.763Z,18.08
2022-08-18T04:41:44.020Z,21.33
2022-08-18T04:44:12.901Z,21.10
2022-08-18T04:46:43.278Z,18.35
2022-08-18T04:49:12.024Z,19.85
2022-08-18T04:52:27.064Z,22.05
2022-08-18T04:54:29.547Z,20.65
2022-08-18T04:56:56.439Z,21.33
2022-08-18T04:59:23.336Z,22.30
2022-08-18T05:01:50.099Z,23.05
2022-08-18T05:04:17.845Z,23.90
2022-08-18T05:06:46.054Z,22.73
2022-08-18T05:09:16.707Z,23.00
2022-08-18T05:11:51.090Z,24.00
2022-08-18T05:14:18.779Z,25.17
2022-08-18T05:16:48.982Z,24.00
2022-08-18T05:19:23.214Z,23.98
2022-08-18T05:21:52.185Z,30.05
2022-08-18T05:24:24.632Z,27.10
2022-08-18T05:26:52.705Z,28.63
2022-08-18T05:29:23.571Z,27.35
2022-08-18T05:31:53.024Z,29.02
2022-08-18T05:34:21.890Z,24.90
2022-08-18T05:36:48.983Z,25.30
2022-08-18T05:39:23.907Z,22.25
2022-08-18T05:41:55.858Z,19.35
2022-08-18T05:44:27.333Z,21.83
2022-08-18T05:46:57.049Z,19.17
2022-08-18T05:49:26.455Z,19.60
2022-08-18T05:52:08.392Z,20.02
2022-08-18T05:55:04.049Z,17.05
2022-08-18T05:57:37.718Z,21.98
2022-08-18T06:00:07.401Z,19.40
2022-08-18T06:03:02.070Z,17.33
2022-08-18T06:05:34.710Z,18.40
2022-08-18T06:08:22.697Z,16.25
2022-08-18T06:10:51.075Z,14.95
2022-08-18T06:13:20.207Z,15.05
2022-08-18T06:15:53.220Z,17.65
2022-08-18T06:18:32.202Z,14.60
2022-08-18T06:21:11.506Z,15.55
2022-08-18T06:23:57.187Z,15.65
2022-08-18T06:26:52.540Z,17.00
2022-08-18T06:29:24.997Z,15.75
2022-08-18T06:31:51.879Z,14.13
2022-08-18T06:34:24.522Z,12.65
2022-08-18T06:37:01.096Z,16.58
2022-08-18T06:39:43.311Z,12.55
2022-08-18T06:42:10.119Z,13.20
2022-08-18T06:44:46.922Z,14.05
2022-08-18T06:47:53.057Z,12.25
2022-08-18T06:50:26.481Z,12.15
2022-08-18T06:52:58.862Z,13.57
2022-08-18T06:55:40.684Z,13.60
2022-08-18T06:58:13.616Z,11.75
2022-08-18T07:00:55.217Z,11.50
2022-08-18T07:03:45.167Z,11.00
2022-08-18T07:06:24.938Z,12.90
2022-08-18T07:08:54.693Z,10.30
2022-08-18T07:11:34.253Z,11.82
2022-08-18T07:14:24.458Z,12.57
2022-08-18T07:17:05.934Z,13.18
2022-08-18T07:19:33.118Z,11.18
2022-08-18T07:22:07.713Z,12.23
2022-08-18T07:24:46.116Z,11.02
2022-08-18T07:27:17.696Z,11.88
2022-08-18T07:30:15.506Z,11.85
2022-08-18T07:32:55.516Z,10.85
2022-08-18T07:35:31.257Z,12.25
2022-08-18T07:38:41.525Z,11.57
2022-08-18T07:41:11.392Z,13.57
2022-08-18T07:43:51.341Z,9.88
2022-08-18T07:46:45.251Z,10.02
2022-08-18T07:49:22.419Z,11.82
2022-08-18T07:52:24.208Z,10.77
2022-08-18T07:55:28.133Z,9.88
2022-08-18T07:58:33.733Z,10.85
2022-08-18T08:01:05.730Z,8.63
2022-08-18T08:04:01.438Z,9.30
2022-08-18T08:09:13.684Z,8.88
2022-08-18T08:11:56.389Z,9.80
2022-08-18T08:15:17.617Z,11.05
2022-08-18T08:18:12.774Z,9.40
2022-08-18T08:20:46.144Z,9.65
2022-08-18T08:23:33.375Z,10.60
2022-08-18T08:26:31.781Z,8.82
2022-08-18T08:29:20.236Z,8.18
2022-08-18T08:32:01.272Z,10.13
2022-08-18T08:34:31.349Z,8.20
2022-08-18T08:37:02.458Z,8.32
2022-08-18T08:39:37.766Z,8.48
2022-08-18T08:42:30.800Z,7.20
2022-08-18T08:45:10.706Z,8.52
2022-08-18T08:50:20.576Z,7.25
2022-08-18T08:52:59.381Z,7.65
2022-08-18T08:55:37.207Z,9.80
2022-08-18T08:58:24.879Z,8.05
2022-08-18T09:00:53.117Z,9.15
2022-08-18T09:03:37.920Z,9.20
2022-08-18T09:06:38.370Z,11.88
2022-08-18T09:09:36.532Z,9.25
2022-08-18T09:12:06.471Z,7.75
2022-08-18T09:14:48.368Z,8.10
2022-08-18T09:18:18.593Z,7.95
2022-08-18T09:21:04.631Z,7.78
2022-08-18T09:23:41.332Z,6.85
2022-08-18T09:26:40.478Z,7.80
2022-08-18T09:29:25.537Z,8.55
2022-08-18T09:32:27.606Z,8.07
2022-08-18T09:35:11.798Z,8.65
2022-08-18T09:41:31.899Z,10.13
2022-08-18T09:44:21.569Z,11.05
2022-08-18T09:49:53.634Z,8.70
2022-08-18T09:52:29.226Z,8.23
2022-08-18T09:54:59.164Z,7.00
2022-08-18T09:57:31.529Z,7.80
2022-08-18T10:00:12.487Z,7.63
2022-08-18T10:02:40.313Z,8.77
2022-08-18T10:05:19.463Z,7.57
2022-08-18T10:08:08.161Z,7.70
2022-08-18T10:14:05.726Z,10.45
2022-08-18T10:17:23.613Z,10.55
2022-08-18T10:20:03.406Z,8.00
2022-08-18T10:22:48.209Z,7.85
2022-08-18T10:25:48.594Z,7.65
2022-08-18T10:29:07.032Z,7.90
2022-08-18T10:31:56.162Z,7.25
2022-08-18T10:34:53.569Z,8.40
2022-08-18T10:37:47.232Z,9.15
2022-08-18T10:40:22.752Z,8.25
2022-08-18T10:49:12.922Z,8.48
2022-08-18T10:52:00.141Z,7.25
2022-08-18T10:54:54.608Z,7.13
2022-08-18T10:57:56.427Z,7.68
2022-08-18T11:00:39.060Z,8.13
2022-08-18T11:03:51.208Z,8.80
2022-08-18T11:06:24.690Z,8.48
2022-08-18T11:09:05.261Z,7.25
2022-08-18T11:11:45.591Z,6.60
2022-08-18T11:15:22.679Z,8.38
2022-08-18T11:18:11.461Z,7.93
2022-08-18T11:20:40.581Z,6.65
2022-08-18T11:23:17.583Z,9.00
2022-08-18T11:25:45.520Z,8.05
2022-08-18T11:28:19.083Z,6.97
2022-08-18T11:30:50.642Z,8.45
2022-08-18T11:33:23.073Z,9.00
2022-08-18T11:36:01.494Z,7.97
2022-08-18T11:38:44.556Z,8.68
2022-08-18T11:41:23.140Z,7.93
2022-08-18T11:46:40.871Z,8.60
2022-08-18T11:49:35.251Z,10.18
2022-08-18T11:52:19.807Z,9.38
2022-08-18T11:55:14.617Z,8.55
2022-08-18T11:57:58.940Z,7.97
2022-08-18T12:00:36.513Z,8.07
2022-08-18T12:03:20.715Z,8.15
2022-08-18T12:05:57.275Z,8.13
2022-08-18T12:08:58.081Z,9.70
2022-08-18T12:11:48.817Z,7.60
2022-08-18T12:15:01.074Z,10.07
2022-08-18T12:17:36.918Z,10.27
2022-08-18T12:20:07.578Z,9.27
2022-08-18T12:22:43.323Z,8.85
2022-08-18T12:25:13.516Z,8.73
2022-08-18T12:27:40.519Z,9.75
2022-08-18T12:30:16.564Z,9.82
2022-08-18T12:35:30.579Z,8.38
2022-08-18T12:38:00.312Z,9.27
2022-08-18T12:40:40.134Z,13.95
2022-08-18T12:43:07.140Z,8.82
2022-08-18T12:45:34.452Z,11.90
2022-08-18T12:48:04.749Z,8.27
2022-08-18T12:50:41.144Z,8.65
2022-08-18T12:53:17.218Z,8.18
2022-08-18T12:55:45.684Z,10.80
2022-08-18T12:58:13.065Z,9.15
2022-08-18T13:00:41.132Z,10.65
2022-08-18T13:03:08.582Z,12.30
2022-08-18T13:05:36.086Z,10.43
2022-08-18T13:08:05.557Z,11.77
2022-08-18T13:10:46.153Z,12.52
2022-08-18T13:13:19.120Z,8.73
2022-08-18T13:15:57.782Z,9.23
2022-08-18T13:18:28.715Z,11.07
2022-08-18T13:21:00.164Z,10.25
2022-08-18T13:23:27.767Z,10.25
2022-08-18T13:26:01.427Z,11.48
2022-08-18T13:28:33.473Z,10.40
2022-08-18T13:31:05.444Z,11.70
2022-08-18T13:33:35.374Z,8.90
2022-08-18T13:36:20.492Z,9.55
2022-08-18T13:38:52.330Z,12.20
2022-08-18T13:41:23.453Z,9.77
2022-08-18T13:43:51.701Z,10.10
2022-08-18T13:46:29.963Z,9.27
2022-08-18T13:49:03.132Z,9.43
2022-08-18T13:51:30.964Z,8.90
2022-08-18T13:54:17.959Z,13.48
2022-08-18T13:56:51.383Z,9.40
2022-08-18T13:59:27.067Z,9.00
2022-08-18T14:01:54.000Z,10.27
2022-08-18T14:04:22.581Z,13.20
2022-08-18T14:06:57.042Z,11.13
2022-08-18T14:09:36.076Z,9.40
2022-08-18T14:12:21.455Z,9.18
2022-08-18T14:14:52.479Z,8.55
2022-08-18T14:17:22.556Z,10.60
2022-08-18T14:20:10.700Z,11.77
2022-08-18T14:23:00.828Z,9.95
2022-08-18T14:25:46.550Z,10.20
2022-08-18T14:28:13.782Z,10.88
2022-08-18T14:30:50.855Z,9.45
2022-08-18T14:33:49.615Z,9.25
2022-08-18T14:36:11.751Z,9.77
2022-08-18T14:38:39.371Z,10.38
2022-08-18T14:41:09.780Z,9.13
2022-08-18T14:44:10.883Z,13.45
2022-08-18T14:46:23.867Z,8.57
2022-08-18T14:48:56.672Z,8.50
2022-08-18T14:51:27.362Z,11.10
2022-08-18T14:53:55.302Z,9.38
2022-08-18T14:56:24.390Z,10.38
2022-08-18T14:58:55.919Z,8.68
2022-08-18T15:01:24.653Z,10.98
2022-08-18T15:03:54.450Z,9.75
2022-08-18T15:06:22.877Z,10.15
2022-08-18T15:08:54.965Z,9.00
2022-08-18T15:11:24.727Z,10.50
2022-08-18T15:13:54.944Z,8.73
2022-08-18T15:16:27.121Z,10.32
2022-08-18T15:18:59.049Z,10.70
2022-08-18T15:21:44.188Z,12.48
2022-08-18T15:24:29.588Z,10.18
2022-08-18T15:27:03.286Z,9.63
2022-08-18T15:29:34.076Z,9.30
2022-08-18T15:32:05.566Z,10.38
2022-08-18T15:34:46.935Z,10.52
2022-08-18T15:37:16.030Z,9.63
2022-08-18T15:39:55.425Z,9.02
2022-08-18T15:42:23.652Z,9.32
2022-08-18T15:44:52.693Z,10.85
2022-08-18T15:47:22.060Z,10.35
2022-08-18T15:49:52.039Z,8.32
2022-08-18T15:52:23.311Z,8.13
2022-08-18T15:54:50.403Z,10.18
2022-08-18T15:57:35.997Z,8.50
2022-08-18T16:00:06.686Z,8.93
2022-08-18T16:02:33.678Z,9.27
2022-08-18T16:05:05.542Z,10.98
2022-08-18T16:07:41.231Z,9.07
2022-08-18T16:10:14.445Z,8.18
2022-08-18T16:12:45.808Z,9.88
2022-08-18T16:15:19.934Z,11.10
2022-08-18T16:17:51.286Z,8.60
2022-08-18T16:20:19.508Z,9.38
2022-08-18T16:22:47.729Z,10.73
2022-08-18T16:25:16.385Z,10.98
2022-08-18T16:27:44.372Z,11.68
2022-08-18T16:30:15.513Z,10.05
2022-08-18T16:32:42.505Z,10.70
2022-08-18T16:35:09.472Z,10.88
2022-08-18T16:37:36.178Z,10.55
2022-08-18T16:40:04.361Z,10.93
2022-08-18T16:42:33.034Z,12.70
2022-08-18T16:45:00.567Z,17.25
2022-08-18T16:47:29.206Z,14.00
2022-08-18T16:49:58.653Z,14.65
2022-08-18T16:52:27.075Z,14.52
2022-08-18T16:54:57.545Z,14.25
2022-08-18T16:57:53.744Z,14.95
2022-08-18T17:00:42.508Z,11.60
2022-08-18T17:03:29.549Z,13.07
2022-08-18T17:06:00.457Z,12.82
2022-08-18T17:08:27.564Z,14.40
2022-08-18T17:10:55.077Z,16.95
2022-08-18T17:13:21.842Z,13.45
2022-08-18T17:15:52.264Z,14.70
2022-08-18T17:18:20.018Z,16.45
2022-08-18T17:20:46.944Z,15.88
2022-08-18T17:23:14.301Z,20.45
2022-08-18T17:25:41.134Z,19.55
2022-08-18T17:28:23.033Z,20.38
2022-08-18T17:33:26.280Z,19.15
2022-08-18T17:35:56.352Z,18.17
2022-08-18T17:38:29.795Z,27.23
2022-08-18T17:46:36.763Z,19.05
2022-08-18T17:49:11.011Z,18.63
2022-08-18T17:51:44.517Z,16.38
2022-08-18T17:54:30.352Z,16.52
2022-08-18T17:57:01.804Z,24.13
2022-08-18T17:59:45.807Z,17.15
2022-08-18T18:02:29.723Z,18.52
2022-08-18T18:05:00.193Z,17.58
2022-08-18T18:07:52.824Z,17.75
2022-08-18T18:10:25.853Z,14.98
2022-08-18T18:13:10.079Z,18.35
2022-08-18T18:15:41.614Z,16.67
2022-08-18T18:18:30.008Z,17.90
2022-08-18T18:20:58.794Z,19.90
2022-08-18T18:23:31.092Z,19.42
2022-08-18T18:25:58.294Z,22.15
2022-08-18T18:28:29.771Z,20.85
2022-08-18T18:30:59.114Z,20.77
2022-08-18T18:33:30.560Z,21.63
2022-08-18T18:36:00.738Z,22.95
2022-08-18T18:38:37.903Z,22.80
2022-08-18T18:43:43.626Z,17.92
2022-08-18T18:46:24.961Z,21.38
2022-08-18T18:49:11.376Z,20.63
2022-08-18T18:51:55.700Z,20.25
2022-08-18T18:54:34.444Z,22.15
2022-08-18T18:57:12.090Z,20.42
2022-08-18T18:59:45.404Z,23.15
2022-08-18T19:02:53.803Z,21.15
2022-08-18T19:08:19.169Z,20.42
2022-08-18T19:11:00.237Z,19.48
2022-08-18T19:13:43.545Z,20.92
2022-08-18T19:16:24.218Z,17.75
2022-08-18T19:18:57.794Z,20.17
2022-08-18T19:22:05.034Z,19.60
2022-08-18T19:27:36.502Z,18.88
2022-08-18T19:30:21.352Z,21.48
2022-08-18T19:32:55.290Z,21.05
2022-08-18T19:35:47.082Z,19.83
2022-08-18T19:38:22.677Z,20.77
2022-08-18T19:40:52.328Z,18.77
2022-08-18T19:44:00.553Z,18.75
2022-08-18T19:46:37.136Z,20.83
2022-08-18T19:49:16.759Z,21.13
2022-08-18T19:52:52.571Z,21.85
2022-08-18T19:55:50.450Z,22.40
2022-08-18T19:59:15.129Z,22.25
2022-08-18T20:02:23.301Z,21.50
2022-08-18T20:05:03.477Z,24.38
2022-08-18T20:08:01.402Z,23.48
2022-08-18T20:10:58.902Z,25.13
2022-08-18T20:13:35.343Z,28.55
2022-08-18T20:16:02.151Z,20.75
2022-08-18T20:18:44.262Z,22.63
2022-08-18T20:21:14.052Z,24.23
2022-08-18T20:23:56.397Z,21.15
2022-08-18T20:26:37.726Z,19.98
2022-08-18T20:29:12.458Z,19.52
2022-08-18T20:32:00.155Z,17.75
2022-08-18T20:34:31.761Z,16.60
2022-08-18T20:37:01.515Z,16.70
2022-08-18T20:39:48.926Z,17.48
2022-08-18T20:42:21.889Z,17.92
2022-08-18T20:44:48.586Z,18.48
2022-08-18T20:47:18.495Z,17.85
2022-08-18T20:49:51.023Z,19.35
2022-08-18T20:52:48.912Z,19.30
2022-08-18T20:55:30.771Z,20.98
2022-08-18T20:58:05.378Z,17.60
2022-08-18T21:00:37.156Z,19.00
2022-08-18T21:03:12.942Z,17.58
2022-08-18T21:05:43.592Z,22.27
2022-08-18T21:08:16.149Z,17.70
2022-08-18T21:10:52.281Z,20.25
2022-08-18T21:13:39.963Z,18.85
2022-08-18T21:16:25.882Z,19.17
2022-08-18T21:19:13.682Z,19.48
2022-08-18T21:21:52.398Z,17.05
2022-08-18T21:24:29.693Z,19.65
2022-08-18T21:26:58.970Z,19.00
2022-08-18T21:29:26.786Z,21.25
2022-08-18T21:32:17.561Z,17.45
2022-08-18T21:34:45.355Z,17.83
2022-08-18T21:37:14.777Z,18.98
2022-08-18T21:39:52.501Z,19.80
2022-08-18T21:42:23.252Z,20.83
2022-08-18T21:44:54.942Z,17.13
2022-08-18T21:47:23.779Z,19.80
2022-08-18T21:50:14.815Z,19.73
2022-08-18T21:52:53.456Z,16.58
2022-08-18T21:55:23.954Z,17.55
2022-08-18T21:58:18.016Z,19.77
2022-08-18T22:01:11.025Z,19.10
2022-08-18T22:03:57.692Z,18.65
2022-08-18T22:06:50.901Z,16.45
2022-08-18T22:09:40.332Z,22.05
2022-08-18T22:12:32.240Z,21.67
2022-08-18T22:15:11.382Z,19.17
2022-08-18T22:17:52.350Z,24.35
2022-08-18T22:20:48.169Z,19.17
2022-08-18T22:23:33.438Z,19.70
2022-08-18T22:26:27.498Z,22.00
2022-08-18T22:28:59.673Z,22.55
2022-08-18T22:31:35.632Z,22.05
2022-08-18T22:34:13.489Z,27.35
2022-08-18T22:36:59.447Z,28.30
2022-08-18T22:39:33.913Z,31.92
2022-08-18T22:42:01.466Z,34.60
2022-08-18T22:44:28.795Z,35.53
2022-08-18T22:46:55.589Z,33.70
2022-08-18T22:49:24.218Z,33.90
2022-08-18T22:51:54.105Z,32.25
2022-08-18T22:54:22.365Z,35.28
2022-08-18T22:56:55.197Z,34.10
2022-08-18T22:59:26.750Z,30.58
2022-08-18T23:01:55.114Z,31.20
2022-08-18T23:04:25.545Z,34.88
2022-08-18T23:06:54.185Z,34.92
2022-08-18T23:09:33.213Z,35.80
2022-08-18T23:12:06.980Z,34.97
2022-08-18T23:14:34.800Z,33.70
2022-08-18T23:17:02.227Z,30.58
2022-08-18T23:19:31.553Z,30.45
2022-08-18T23:22:00.232Z,28.25
2022-08-18T23:24:27.621Z,27.02
2022-08-18T23:26:54.664Z,28.83
2022-08-18T23:29:22.529Z,25.90
2022-08-18T23:31:51.595Z,28.45
2022-08-18T23:34:20.261Z,29.20
2022-08-18T23:36:55.446Z,25.42
2022-08-18T23:39:24.713Z,25.83
2022-08-18T23:41:55.388Z,24.17
2022-08-18T23:44:27.867Z,23.77
2022-08-18T23:46:57.859Z,21.13
2022-08-18T23:49:26.263Z,21.00
2022-08-18T23:51:55.983Z,25.23
2022-08-18T23:54:29.299Z,25.30
2022-08-18T23:56:56.411Z,26.50
2022-08-18T23:59:25.636Z,26.67
